Time;durP1;ratioP1;P1;durP2;ratioP2;P2;SDS_P1;SDS_P2;PMS_P1;PMS_P2;Temp;Humidity;BMP_temperature;BMP_pressure;BME280_temperature;BME280_humidity;BME280_pressure;Samples;Min_cycle;Max_cycle;Signal;HPM_P1;HPM_P2
2023/12/24 00:01:22;;;;;;;161.10;71.93;;;17.90;77.10;;;;;;5058331;28;20127;-88
2023/12/24 00:03:48;;;;;;;158.57;71.95;;;18.00;77.10;;;;;;5070639;28;20952;-88
2023/12/24 00:06:14;;;;;;;161.95;71.97;;;18.00;76.60;;;;;;5064895;28;20053;-88
2023/12/24 00:08:39;;;;;;;158.60;70.72;;;18.00;76.30;;;;;;5054743;28;20147;-88
2023/12/24 00:11:05;;;;;;;159.57;71.00;;;17.90;76.10;;;;;;5055117;28;20076;-89
2023/12/24 00:13:31;;;;;;;154.45;70.82;;;17.90;76.30;;;;;;5063422;28;20053;-89
2023/12/24 00:15:57;;;;;;;153.05;69.95;;;17.90;76.30;;;;;;5052494;28;20037;-88
2023/12/24 00:18:23;;;;;;;155.27;68.88;;;17.90;76.20;;;;;;5056952;28;20049;-88
2023/12/24 00:20:49;;;;;;;154.63;69.38;;;17.90;75.60;;;;;;5057852;28;20112;-88
2023/12/24 00:23:14;;;;;;;152.95;69.72;;;17.90;75.80;;;;;;5060028;28;20053;-88
2023/12/24 00:25:43;;;;;;;153.93;69.32;;;17.90;75.50;;;;;;5059309;28;20057;-87
2023/12/24 00:28:08;;;;;;;149.38;68.47;;;17.90;75.70;;;;;;5046946;28;20041;-86
2023/12/24 00:30:35;;;;;;;147.45;67.43;;;17.90;75.30;;;;;;5048095;28;20049;-87
2023/12/24 00:33:01;;;;;;;152.25;67.80;;;17.90;75.50;;;;;;5047144;28;20140;-87
2023/12/24 00:35:27;;;;;;;153.18;68.25;;;17.90;75.00;;;;;;5047035;28;20050;-86
2023/12/24 00:37:55;;;;;;;156.70;67.00;;;17.90;75.10;;;;;;5049673;28;20044;-86
2023/12/24 00:40:21;;;;;;;150.13;67.43;;;17.80;75.10;;;;;;5051563;28;20051;-87
2023/12/24 00:42:47;;;;;;;150.65;66.05;;;17.90;75.00;;;;;;5056861;28;20037;-87
2023/12/24 00:45:13;;;;;;;150.25;66.53;;;17.80;74.90;;;;;;5047095;28;20050;-89
2023/12/24 00:47:39;;;;;;;141.18;64.75;;;17.80;75.00;;;;;;5047766;28;20041;-88
2023/12/24 00:50:06;;;;;;;141.80;64.90;;;17.80;74.20;;;;;;5048214;28;20084;-88
2023/12/24 00:52:33;;;;;;;149.75;64.78;;;17.80;74.60;;;;;;5061877;28;20994;-88
2023/12/24 00:54:58;;;;;;;144.02;65.55;;;17.80;74.20;;;;;;5042165;28;20049;-88
2023/12/24 00:57:24;;;;;;;147.02;64.35;;;17.80;74.50;;;;;;5044500;28;20612;-88
2023/12/24 00:59:50;;;;;;;140.77;63.80;;;17.80;74.50;;;;;;5043770;28;20033;-88
2023/12/24 01:02:15;;;;;;;142.60;65.00;;;17.80;74.20;;;;;;5044012;28;20051;-88
2023/12/24 01:04:41;;;;;;;139.70;62.97;;;17.80;74.20;;;;;;5052612;28;20057;-88
2023/12/24 01:07:07;;;;;;;140.60;63.38;;;17.70;74.00;;;;;;5052339;28;20065;-88
2023/12/24 01:09:32;;;;;;;138.10;63.20;;;17.70;74.20;;;;;;5046095;28;20505;-88
2023/12/24 01:11:58;;;;;;;141.63;63.22;;;17.70;73.80;;;;;;5052342;28;20042;-88
2023/12/24 01:14:24;;;;;;;140.02;63.13;;;17.70;73.70;;;;;;5050602;28;20157;-89
2023/12/24 01:16:49;;;;;;;137.80;62.92;;;17.70;73.90;;;;;;5050980;28;20038;-88
2023/12/24 01:19:15;;;;;;;142.05;64.13;;;17.70;73.50;;;;;;5041579;28;20045;-88
2023/12/24 01:21:40;;;;;;;139.20;62.15;;;17.70;73.70;;;;;;5043293;28;20421;-88
2023/12/24 01:24:06;;;;;;;138.38;61.20;;;17.70;73.60;;;;;;5052618;28;20716;-89
2023/12/24 01:26:34;;;;;;;139.10;61.13;;;17.70;73.30;;;;;;5049427;28;20571;-89
2023/12/24 01:29:00;;;;;;;137.23;61.97;;;17.70;73.40;;;;;;5047811;28;20034;-88
2023/12/24 01:31:27;;;;;;;137.13;61.15;;;17.70;73.40;;;;;;5045747;28;20408;-88
2023/12/24 01:33:53;;;;;;;136.68;62.25;;;17.60;73.40;;;;;;5040455;28;20511;-88
2023/12/24 01:36:20;;;;;;;136.45;60.97;;;17.70;73.30;;;;;;5037998;28;20576;-88
2023/12/24 01:38:49;;;;;;;136.00;60.50;;;17.70;73.40;;;;;;5052352;28;20049;-89
2023/12/24 01:41:15;;;;;;;138.07;61.30;;;17.70;73.30;;;;;;5048527;28;21943;-88
2023/12/24 01:43:41;;;;;;;135.90;60.08;;;17.60;73.10;;;;;;5052698;28;20136;-89
2023/12/24 01:46:09;;;;;;;134.38;60.00;;;17.60;73.10;;;;;;5047899;28;20041;-88
2023/12/24 01:48:36;;;;;;;136.05;60.53;;;17.60;73.00;;;;;;5048235;28;20921;-88
2023/12/24 01:51:02;;;;;;;135.20;59.97;;;17.60;73.10;;;;;;5051529;28;20095;-88
2023/12/24 01:53:29;;;;;;;133.80;59.45;;;17.60;72.90;;;;;;5044743;28;20049;-88
2023/12/24 01:55:55;;;;;;;132.32;59.97;;;17.60;73.00;;;;;;5044592;28;20126;-83
2023/12/24 01:58:20;;;;;;;134.20;59.70;;;17.60;72.90;;;;;;5044419;28;20500;-80
2023/12/24 02:00:47;;;;;;;133.50;59.72;;;17.60;72.80;;;;;;5044654;28;20752;-80
2023/12/24 02:03:15;;;;;;;134.75;59.45;;;17.60;72.80;;;;;;5045659;28;20073;-80
2023/12/24 02:05:44;;;;;;;133.82;59.78;;;17.60;72.50;;;;;;5051792;28;20055;-87
2023/12/24 02:08:14;;;;;;;134.13;59.72;;;17.60;72.70;;;;;;5051607;28;20125;-88
2023/12/24 02:10:40;;;;;;;133.47;60.03;;;17.50;72.40;;;;;;5061122;28;20041;-87
2023/12/24 02:13:06;;;;;;;132.52;59.50;;;17.50;72.70;;;;;;5057664;28;20283;-87
2023/12/24 02:15:32;;;;;;;136.75;59.20;;;17.50;72.60;;;;;;5060754;28;20040;-90
2023/12/24 02:17:59;;;;;;;132.80;59.40;;;17.50;72.40;;;;;;5059588;28;20041;-87
2023/12/24 02:20:25;;;;;;;132.63;59.28;;;17.50;72.30;;;;;;5060828;28;20069;-87
2023/12/24 02:22:52;;;;;;;133.02;59.15;;;17.50;72.20;;;;;;5056422;28;20041;-89
2023/12/24 02:25:18;;;;;;;131.90;58.17;;;17.50;72.20;;;;;;5056639;28;20041;-88
2023/12/24 02:27:59;;;;;;;131.77;59.25;;;17.50;72.20;;;;;;5055493;28;20100;-89
2023/12/24 02:30:34;;;;;;;131.00;57.92;;;17.50;72.20;;;;;;5059231;28;21172;-88
2023/12/24 02:33:03;;;;;;;132.23;58.95;;;17.50;72.10;;;;;;5051292;28;20095;-89
2023/12/24 02:35:32;;;;;;;130.70;58.58;;;17.50;72.20;;;;;;5057538;28;20042;-87
2023/12/24 02:37:58;;;;;;;130.63;58.88;;;17.40;71.90;;;;;;5053270;28;20052;-88
2023/12/24 02:40:24;;;;;;;131.77;58.38;;;17.40;72.00;;;;;;5058461;28;20456;-89
2023/12/24 02:42:49;;;;;;;130.50;58.72;;;17.40;71.80;;;;;;5061205;28;20767;-89
2023/12/24 02:45:15;;;;;;;130.48;57.90;;;17.40;71.90;;;;;;5061547;28;20132;-89
2023/12/24 02:47:41;;;;;;;131.25;58.65;;;17.40;71.90;;;;;;5057006;28;20117;-90
2023/12/24 02:50:06;;;;;;;130.50;58.20;;;17.40;71.90;;;;;;5056428;28;20030;-87
2023/12/24 02:52:32;;;;;;;132.57;57.95;;;17.40;71.80;;;;;;5064119;28;20046;-89
2023/12/24 02:54:58;;;;;;;128.90;57.60;;;17.40;71.90;;;;;;5065459;28;20038;-88
2023/12/24 02:57:23;;;;;;;129.32;57.95;;;17.40;71.70;;;;;;5059464;28;20803;-87
2023/12/24 02:59:49;;;;;;;129.93;57.85;;;17.40;71.70;;;;;;5057583;28;20911;-88
2023/12/24 03:02:15;;;;;;;130.25;58.20;;;17.40;71.90;;;;;;5065045;28;20069;-87
2023/12/24 03:04:40;;;;;;;131.15;57.42;;;17.40;71.70;;;;;;5058156;28;20584;-88
2023/12/24 03:07:06;;;;;;;130.32;58.10;;;17.30;71.70;;;;;;5059470;28;20038;-89
2023/12/24 03:09:31;;;;;;;131.43;58.15;;;17.40;71.70;;;;;;5058377;28;20033;-90
2023/12/24 03:11:57;;;;;;;130.65;57.60;;;17.30;71.70;;;;;;5060663;28;20562;-88
2023/12/24 03:14:23;;;;;;;129.55;57.40;;;17.30;71.70;;;;;;5058708;28;20587;-81
2023/12/24 03:16:49;;;;;;;130.15;57.63;;;17.40;71.60;;;;;;5050553;28;20042;-82
2023/12/24 03:19:14;;;;;;;130.10;57.50;;;17.30;71.50;;;;;;5053808;28;20061;-82
2023/12/24 03:21:43;;;;;;;127.90;57.08;;;17.30;71.50;;;;;;5054163;28;20102;-81
2023/12/24 03:24:09;;;;;;;129.70;57.40;;;17.30;71.30;;;;;;5050291;28;20091;-82
2023/12/24 03:26:35;;;;;;;130.30;57.63;;;17.30;71.50;;;;;;5045043;28;20077;-82
2023/12/24 03:29:00;;;;;;;131.05;57.88;;;17.30;71.40;;;;;;5055825;28;20049;-81
2023/12/24 03:31:26;;;;;;;130.32;57.50;;;17.30;71.50;;;;;;5046750;28;20127;-82
2023/12/24 03:33:53;;;;;;;132.60;58.00;;;17.30;71.50;;;;;;5046086;28;20053;-81
2023/12/24 03:36:18;;;;;;;130.10;57.17;;;17.30;71.10;;;;;;5047653;28;20103;-82
2023/12/24 03:38:45;;;;;;;129.20;57.05;;;17.30;71.30;;;;;;5048402;28;20177;-82
2023/12/24 03:41:10;;;;;;;130.13;57.35;;;17.20;71.30;;;;;;5050060;28;20144;-83
2023/12/24 03:43:36;;;;;;;130.95;57.33;;;17.20;71.40;;;;;;5048948;28;20135;-82
2023/12/24 03:46:02;;;;;;;131.55;57.28;;;17.20;71.40;;;;;;5054082;28;21331;-81
2023/12/24 03:48:29;;;;;;;129.68;58.28;;;17.20;71.40;;;;;;5046269;28;20056;-81
2023/12/24 03:50:54;;;;;;;130.65;57.72;;;17.20;71.40;;;;;;5041430;28;21089;-81
2023/12/24 03:53:20;;;;;;;129.93;57.50;;;17.20;71.50;;;;;;5053227;28;20046;-82
2023/12/24 03:55:45;;;;;;;130.65;57.70;;;17.20;71.40;;;;;;5047164;28;20496;-83
2023/12/24 03:58:11;;;;;;;131.93;57.53;;;17.10;71.40;;;;;;5050357;28;20046;-81
2023/12/24 04:00:37;;;;;;;131.02;57.17;;;17.10;71.40;;;;;;5039920;28;20054;-81
2023/12/24 04:03:03;;;;;;;130.50;58.20;;;17.20;71.30;;;;;;5046207;28;20048;-81
2023/12/24 04:05:28;;;;;;;132.27;58.30;;;17.20;71.50;;;;;;5052763;28;20053;-83
2023/12/24 04:07:54;;;;;;;132.07;57.67;;;17.10;71.40;;;;;;5047817;28;20080;-82
2023/12/24 04:10:21;;;;;;;131.45;57.17;;;17.10;71.40;;;;;;5048949;28;20050;-82
2023/12/24 04:12:46;;;;;;;131.95;57.65;;;17.10;71.40;;;;;;5043679;28;20889;-82
2023/12/24 04:15:12;;;;;;;131.23;57.63;;;17.20;71.50;;;;;;5054175;28;20132;-82
2023/12/24 04:17:38;;;;;;;131.63;58.05;;;17.10;71.40;;;;;;5050417;28;20168;-82
2023/12/24 04:20:04;;;;;;;131.57;58.17;;;17.10;71.50;;;;;;5048906;28;20154;-82
2023/12/24 04:22:31;;;;;;;129.80;57.75;;;17.10;71.50;;;;;;5045491;28;20103;-83
2023/12/24 04:24:59;;;;;;;130.07;57.55;;;17.10;71.40;;;;;;5046896;28;20095;-81
2023/12/24 04:27:25;;;;;;;128.93;57.10;;;17.10;71.30;;;;;;5039595;28;20149;-81
2023/12/24 04:29:51;;;;;;;128.93;57.25;;;17.10;71.40;;;;;;5040546;28;20133;-83
2023/12/24 04:32:20;;;;;;;130.50;57.90;;;17.10;71.40;;;;;;5043963;28;20050;-82
2023/12/24 04:34:45;;;;;;;132.85;57.38;;;17.10;71.60;;;;;;5044097;28;20046;-83
2023/12/24 04:37:11;;;;;;;131.43;58.58;;;17.10;71.70;;;;;;5043267;28;20069;-84
2023/12/24 04:39:37;;;;;;;130.18;57.40;;;17.10;71.50;;;;;;5039600;28;20176;-82
2023/12/24 04:42:03;;;;;;;131.65;57.47;;;17.10;71.50;;;;;;5040800;28;20107;-82
2023/12/24 04:44:28;;;;;;;127.80;56.80;;;17.10;71.60;;;;;;5047204;28;20520;-85
2023/12/24 04:46:54;;;;;;;129.00;56.88;;;17.00;71.60;;;;;;5045219;28;20041;-82
2023/12/24 04:49:20;;;;;;;130.02;57.42;;;17.00;71.80;;;;;;5038944;28;20054;-82
2023/12/24 04:51:46;;;;;;;129.85;57.05;;;17.00;71.80;;;;;;5047466;28;20164;-82
2023/12/24 04:54:12;;;;;;;129.05;56.90;;;17.10;71.80;;;;;;5049592;28;20075;-82
2023/12/24 04:56:38;;;;;;;130.43;57.35;;;17.00;71.70;;;;;;5049997;28;20045;-86
2023/12/24 04:59:04;;;;;;;130.38;57.70;;;17.00;71.70;;;;;;5045609;28;20046;-82
2023/12/24 05:01:30;;;;;;;128.57;57.33;;;17.00;71.70;;;;;;5041387;28;20743;-84
2023/12/24 05:03:56;;;;;;;129.95;56.53;;;17.00;71.60;;;;;;5049049;28;20574;-82
2023/12/24 05:06:22;;;;;;;130.75;57.17;;;17.00;71.50;;;;;;5050800;28;20041;-85
2023/12/24 05:08:47;;;;;;;129.73;57.38;;;17.00;71.60;;;;;;5044478;28;20176;-81
2023/12/24 05:11:13;;;;;;;130.23;57.35;;;17.00;71.60;;;;;;5043854;28;20057;-82
2023/12/24 05:13:39;;;;;;;129.07;56.97;;;17.00;71.70;;;;;;5038451;28;21030;-81
2023/12/24 05:16:05;;;;;;;129.20;57.40;;;17.00;71.60;;;;;;5042727;28;20164;-81
2023/12/24 05:18:35;;;;;;;129.25;57.25;;;17.00;71.60;;;;;;5043465;28;21015;-81
2023/12/24 05:21:00;;;;;;;130.52;58.00;;;17.00;71.70;;;;;;5036789;28;20041;-81
2023/12/24 05:23:26;;;;;;;129.10;56.70;;;17.00;71.60;;;;;;5048083;28;20037;-82
2023/12/24 05:25:52;;;;;;;128.90;57.10;;;17.00;71.50;;;;;;5048896;28;20056;-81
2023/12/24 05:28:18;;;;;;;127.15;56.20;;;17.00;71.60;;;;;;5046735;28;20048;-81
2023/12/24 05:30:44;;;;;;;129.18;57.70;;;17.00;71.50;;;;;;5041819;28;20040;-81
2023/12/24 05:33:10;;;;;;;130.90;56.70;;;16.90;71.50;;;;;;5040908;28;20071;-81
2023/12/24 05:35:36;;;;;;;130.75;56.90;;;16.90;71.50;;;;;;5047648;28;20492;-81
2023/12/24 05:38:02;;;;;;;129.65;57.30;;;16.90;71.50;;;;;;5047482;28;20053;-85
2023/12/24 05:40:28;;;;;;;130.32;57.15;;;16.90;71.50;;;;;;5046488;28;20120;-82
2023/12/24 05:42:54;;;;;;;127.82;56.55;;;16.90;71.40;;;;;;5040940;28;20881;-80
2023/12/24 05:45:20;;;;;;;127.60;56.83;;;16.90;71.50;;;;;;5046752;28;20069;-82
2023/12/24 05:47:45;;;;;;;129.10;57.35;;;16.90;71.50;;;;;;5052367;28;20057;-84
2023/12/24 05:50:12;;;;;;;128.85;57.70;;;16.90;71.40;;;;;;5051287;28;20042;-82
2023/12/24 05:52:38;;;;;;;129.90;57.25;;;16.90;71.40;;;;;;5042241;28;20055;-81
2023/12/24 05:55:04;;;;;;;127.75;57.05;;;16.90;71.40;;;;;;5049302;28;20150;-81
2023/12/24 05:57:29;;;;;;;131.32;57.40;;;16.90;71.40;;;;;;5054541;28;20061;-82
2023/12/24 05:59:56;;;;;;;128.70;57.15;;;16.90;71.40;;;;;;5044259;28;20115;-80
2023/12/24 06:02:22;;;;;;;127.88;56.88;;;16.90;71.40;;;;;;5039433;28;20129;-83
2023/12/24 06:04:47;;;;;;;127.45;56.50;;;16.90;71.30;;;;;;5039753;28;20160;-81
2023/12/24 06:07:13;;;;;;;127.07;56.17;;;16.90;71.30;;;;;;5047955;28;20064;-84
2023/12/24 06:09:39;;;;;;;128.43;56.80;;;16.90;71.30;;;;;;5042216;28;20099;-81
2023/12/24 06:12:06;;;;;;;127.90;56.80;;;16.90;71.30;;;;;;5037196;28;20048;-81
2023/12/24 06:14:31;;;;;;;128.48;57.05;;;16.90;71.20;;;;;;5046774;28;21088;-83
2023/12/24 06:16:57;;;;;;;126.47;56.08;;;16.90;71.20;;;;;;5050122;28;20049;-85
2023/12/24 06:19:23;;;;;;;126.22;56.08;;;16.90;71.20;;;;;;5046612;28;20049;-82
2023/12/24 06:21:49;;;;;;;129.85;57.30;;;16.90;71.20;;;;;;5042745;28;20060;-81
2023/12/24 06:24:20;;;;;;;126.85;56.50;;;16.90;71.30;;;;;;5048569;28;20608;-81
2023/12/24 06:26:49;;;;;;;128.07;56.92;;;16.90;71.20;;;;;;5053321;28;20059;-81
2023/12/24 06:29:14;;;;;;;128.68;56.80;;;16.90;71.30;;;;;;5051560;28;20424;-83
2023/12/24 06:31:40;;;;;;;126.65;56.65;;;16.90;71.20;;;;;;5036443;28;20108;-81
2023/12/24 06:34:06;;;;;;;127.00;56.13;;;16.90;71.30;;;;;;5039442;28;20439;-81
2023/12/24 06:36:31;;;;;;;127.10;55.97;;;16.90;71.20;;;;;;5041893;28;20057;-82
2023/12/24 06:38:57;;;;;;;126.40;56.47;;;16.90;71.10;;;;;;5048734;28;21092;-84
2023/12/24 06:41:23;;;;;;;127.20;56.58;;;16.90;71.20;;;;;;5045623;28;20045;-82
2023/12/24 06:43:50;;;;;;;125.93;56.40;;;16.90;71.20;;;;;;5047356;28;20083;-81
2023/12/24 06:46:15;;;;;;;127.93;56.28;;;16.90;71.20;;;;;;5042846;28;20940;-84
2023/12/24 06:48:41;;;;;;;126.97;56.47;;;16.90;71.90;;;;;;5042945;28;20064;-86
2023/12/24 06:51:07;;;;;;;127.45;57.28;;;16.90;71.20;;;;;;5044950;28;20468;-86
2023/12/24 06:53:33;;;;;;;127.43;57.05;;;16.90;71.20;;;;;;5032706;28;20046;-85
2023/12/24 06:55:59;;;;;;;126.82;56.22;;;16.90;71.20;;;;;;5039953;28;20050;-85
2023/12/24 06:58:24;;;;;;;127.60;56.97;;;16.80;71.10;;;;;;5037672;28;20519;-85
2023/12/24 07:00:50;;;;;;;127.82;56.83;;;16.90;71.20;;;;;;5043524;28;20042;-85
2023/12/24 07:03:16;;;;;;;126.63;57.00;;;16.90;71.10;;;;;;5053869;28;20047;-86
2023/12/24 07:05:42;;;;;;;128.20;56.70;;;16.80;71.00;;;;;;5046870;28;20365;-88
2023/12/24 07:08:08;;;;;;;128.30;57.35;;;16.90;71.30;;;;;;5044676;28;20653;-85
2023/12/24 07:10:34;;;;;;;127.28;56.63;;;16.90;71.20;;;;;;5045082;28;20056;-86
2023/12/24 07:13:00;;;;;;;126.47;56.10;;;16.80;71.10;;;;;;5048148;28;20041;-85
2023/12/24 07:15:26;;;;;;;127.90;56.53;;;16.90;71.90;;;;;;5043120;28;20057;-85
2023/12/24 07:17:52;;;;;;;128.30;57.20;;;16.90;71.10;;;;;;5047735;28;20192;-86
2023/12/24 07:20:17;;;;;;;128.13;56.92;;;16.80;71.00;;;;;;5047247;28;20052;-85
2023/12/24 07:22:44;;;;;;;128.18;57.20;;;16.80;71.10;;;;;;5042154;28;20056;-85
2023/12/24 07:25:10;;;;;;;127.65;57.05;;;16.80;71.10;;;;;;5039121;28;20049;-86
2023/12/24 07:27:36;;;;;;;127.63;57.08;;;16.80;71.10;;;;;;5045868;28;20057;-85
2023/12/24 07:30:02;;;;;;;127.03;56.95;;;16.80;71.20;;;;;;5050789;28;20582;-85
2023/12/24 07:32:28;;;;;;;125.82;56.05;;;16.80;71.80;;;;;;5045362;28;20042;-85
2023/12/24 07:34:56;;;;;;;127.15;56.42;;;16.80;71.10;;;;;;5047198;28;20408;-85
2023/12/24 07:37:22;;;;;;;127.75;56.90;;;16.80;71.10;;;;;;5046651;28;20045;-85
2023/12/24 07:39:47;;;;;;;128.20;57.15;;;16.80;71.10;;;;;;5048049;28;20045;-85
2023/12/24 07:42:13;;;;;;;127.57;57.15;;;16.80;71.20;;;;;;5049263;28;20045;-86
2023/12/24 07:44:39;;;;;;;127.15;56.80;;;16.80;71.20;;;;;;5049676;28;20695;-85
2023/12/24 07:47:05;;;;;;;127.82;57.13;;;16.80;71.20;;;;;;5046242;28;20045;-87
2023/12/24 07:49:31;;;;;;;127.57;56.70;;;16.80;71.20;;;;;;5044478;28;20053;-85
2023/12/24 07:51:56;;;;;;;128.52;56.95;;;16.80;71.10;;;;;;5047576;28;20050;-87
2023/12/24 07:54:22;;;;;;;129.07;57.63;;;16.80;71.20;;;;;;5042933;28;20049;-87
2023/12/24 07:56:48;;;;;;;126.47;56.08;;;16.80;71.20;;;;;;5048827;28;20120;-81
2023/12/24 07:59:13;;;;;;;126.40;56.28;;;16.80;71.10;;;;;;5044571;28;20045;-82
2023/12/24 08:01:39;;;;;;;126.80;56.10;;;16.80;71.20;;;;;;5045352;28;20048;-81
2023/12/24 08:04:05;;;;;;;126.60;56.03;;;16.80;71.10;;;;;;5047416;28;20050;-80
2023/12/24 08:06:31;;;;;;;125.85;56.47;;;16.80;71.20;;;;;;5042982;28;22066;-81
2023/12/24 08:08:57;;;;;;;125.55;55.70;;;16.80;71.20;;;;;;5053345;28;20053;-80
2023/12/24 08:11:23;;;;;;;126.75;56.05;;;16.80;71.10;;;;;;5049167;28;20046;-81
2023/12/24 08:13:49;;;;;;;126.07;55.78;;;16.80;71.20;;;;;;5050335;28;20992;-81
2023/12/24 08:16:14;;;;;;;125.90;56.25;;;16.80;71.20;;;;;;5036191;28;20051;-80
2023/12/24 08:18:40;;;;;;;126.18;56.00;;;16.80;72.00;;;;;;5047006;28;20052;-82
2023/12/24 08:21:07;;;;;;;127.43;56.28;;;16.80;71.30;;;;;;5048707;28;20822;-81
2023/12/24 08:23:33;;;;;;;126.65;56.28;;;16.80;71.30;;;;;;5050445;28;20045;-80
2023/12/24 08:25:58;;;;;;;125.68;56.00;;;16.80;71.30;;;;;;5047022;28;20631;-85
2023/12/24 08:28:24;;;;;;;128.00;55.90;;;16.70;71.20;;;;;;5049437;28;20570;-82
2023/12/24 08:30:50;;;;;;;125.28;55.88;;;16.70;71.20;;;;;;5039729;28;20068;-81
2023/12/24 08:33:15;;;;;;;126.88;56.65;;;16.80;71.40;;;;;;5039786;28;20056;-85
2023/12/24 08:35:41;;;;;;;126.10;56.28;;;16.70;71.50;;;;;;5042746;28;20107;-82
2023/12/24 08:38:07;;;;;;;127.45;57.03;;;16.70;71.70;;;;;;5033770;28;20081;-86
2023/12/24 08:40:32;;;;;;;125.82;55.95;;;16.70;71.80;;;;;;5045894;28;21123;-82
2023/12/24 08:42:58;;;;;;;127.72;56.03;;;16.80;72.30;;;;;;5044638;28;20062;-81
2023/12/24 08:45:24;;;;;;;127.45;57.05;;;16.80;72.50;;;;;;5047466;28;20125;-84
2023/12/24 08:47:49;;;;;;;128.10;57.15;;;16.80;72.50;;;;;;5043551;28;20496;-81
2023/12/24 08:50:16;;;;;;;126.93;56.45;;;16.80;72.70;;;;;;5047935;28;20119;-81
2023/12/24 08:52:42;;;;;;;128.02;56.75;;;16.80;72.60;;;;;;5045135;28;20068;-79
2023/12/24 08:55:08;;;;;;;126.72;56.55;;;16.80;72.90;;;;;;5048369;28;20508;-79
2023/12/24 08:57:34;;;;;;;127.88;56.30;;;16.80;73.10;;;;;;5038184;28;20697;-81
2023/12/24 08:59:59;;;;;;;128.80;56.78;;;16.80;73.20;;;;;;5051337;28;20084;-83
2023/12/24 09:02:25;;;;;;;124.85;55.75;;;16.80;73.20;;;;;;5041376;28;20177;-80
2023/12/24 09:04:51;;;;;;;129.88;58.60;;;16.80;73.20;;;;;;5062640;22;20028;-37
2023/12/24 09:07:17;;;;;;;126.18;56.63;;;16.80;73.20;;;;;;5046365;28;20862;-38
2023/12/24 09:09:42;;;;;;;127.00;56.08;;;16.80;73.50;;;;;;5048560;28;22012;-38
2023/12/24 09:12:08;;;;;;;126.65;56.45;;;16.80;73.20;;;;;;5053430;28;20056;-38
2023/12/24 09:14:34;;;;;;;126.65;56.08;;;16.80;73.10;;;;;;5052039;28;20033;-40
2023/12/24 09:17:00;;;;;;;126.25;56.50;;;16.80;73.20;;;;;;5049343;28;20131;-39
2023/12/24 09:19:25;;;;;;;129.20;56.40;;;16.80;73.10;;;;;;5051268;28;20037;-39
2023/12/24 09:21:51;;;;;;;131.45;57.50;;;16.80;73.10;;;;;;5056194;28;20096;-40
2023/12/24 09:24:17;;;;;;;127.60;56.83;;;16.80;73.60;;;;;;5054512;28;20284;-38
2023/12/24 09:26:42;;;;;;;129.32;57.67;;;16.80;74.10;;;;;;5040514;28;21019;-38
2023/12/24 09:29:11;;;;;;;133.57;58.50;;;16.80;74.00;;;;;;5028360;28;20037;-37
2023/12/24 09:31:39;;;;;;;137.75;58.72;;;16.90;73.90;;;;;;5031780;28;20079;-37
2023/12/24 09:34:06;;;;;;;135.32;57.63;;;17.00;74.10;;;;;;5037648;28;20664;-38
2023/12/24 09:36:31;;;;;;;133.32;58.50;;;17.10;74.00;;;;;;5042203;28;20061;-38
2023/12/24 09:38:57;;;;;;;133.95;59.08;;;17.10;73.80;;;;;;5035087;28;20932;-37
2023/12/24 09:41:23;;;;;;;137.90;59.20;;;17.10;73.70;;;;;;5035518;28;20068;-38
2023/12/24 09:43:49;;;;;;;133.43;58.10;;;17.10;73.40;;;;;;5039572;28;20061;-37
2023/12/24 09:46:15;;;;;;;134.85;57.85;;;17.10;73.30;;;;;;5040462;28;20044;-38
2023/12/24 09:48:40;;;;;;;137.13;59.42;;;17.10;73.10;;;;;;5038291;28;20034;-39
2023/12/24 09:51:08;;;;;;;133.65;58.65;;;17.10;72.90;;;;;;5041425;28;20397;-38
2023/12/24 09:53:33;;;;;;;133.98;57.75;;;17.10;72.80;;;;;;5040944;28;20041;-38
2023/12/24 09:55:59;;;;;;;135.32;58.42;;;17.10;72.80;;;;;;5040971;28;20037;-38
2023/12/24 09:58:25;;;;;;;133.13;57.92;;;17.10;72.60;;;;;;5043187;28;20045;-38
2023/12/24 10:00:50;;;;;;;134.20;58.83;;;17.10;72.60;;;;;;5036234;28;20041;-37
2023/12/24 10:03:16;;;;;;;133.50;58.78;;;17.20;72.50;;;;;;5036386;28;20646;-41
2023/12/24 10:06:04;;;;;;;133.23;58.67;;;17.10;72.40;;;;;;5036818;28;20056;-37
2023/12/24 10:08:30;;;;;;;131.93;58.20;;;17.20;72.40;;;;;;5041457;28;20081;-38
2023/12/24 10:10:57;;;;;;;129.73;57.55;;;17.10;72.30;;;;;;5041376;28;20049;-37
2023/12/24 10:13:23;;;;;;;130.85;57.08;;;17.10;72.20;;;;;;5043739;28;20136;-37
2023/12/24 10:16:05;;;;;;;129.95;58.25;;;17.10;72.20;;;;;;5038869;28;20034;-37
2023/12/24 10:18:31;;;;;;;133.23;57.97;;;17.10;72.20;;;;;;5038610;28;20045;-38
2023/12/24 10:21:06;;;;;;;133.73;58.50;;;17.10;72.30;;;;;;5039897;28;20100;-37
2023/12/24 10:23:33;;;;;;;134.25;57.85;;;17.10;72.20;;;;;;5036814;28;20037;-37
2023/12/24 10:26:03;;;;;;;130.30;57.42;;;17.10;72.30;;;;;;5030956;28;20041;-37
2023/12/24 10:28:30;;;;;;;132.60;58.08;;;17.20;72.80;;;;;;5032456;28;20033;-38
2023/12/24 10:31:07;;;;;;;132.55;57.08;;;17.10;72.80;;;;;;5031236;28;20140;-37
2023/12/24 10:33:32;;;;;;;131.35;57.90;;;17.10;73.10;;;;;;5027709;28;21510;-37
2023/12/24 10:35:58;;;;;;;131.10;58.15;;;17.20;73.40;;;;;;5031179;28;20044;-38
2023/12/24 10:38:27;;;;;;;130.07;58.03;;;17.10;73.80;;;;;;5027490;28;20099;-39
2023/12/24 10:40:53;;;;;;;131.40;58.10;;;17.10;74.00;;;;;;5031817;28;20052;-38
2023/12/24 10:43:19;;;;;;;136.43;58.88;;;17.10;75.00;;;;;;5031491;28;20034;-39
2023/12/24 10:45:45;;;;;;;139.23;58.72;;;17.10;75.10;;;;;;5032520;28;20037;-38
2023/12/24 10:48:11;;;;;;;132.80;58.88;;;17.10;75.80;;;;;;5031669;28;20100;-39
2023/12/24 10:50:37;;;;;;;132.85;58.13;;;17.20;75.80;;;;;;5030328;28;20046;-39
2023/12/24 10:53:03;;;;;;;132.18;58.13;;;17.20;75.70;;;;;;5025102;28;20915;-39
2023/12/24 10:55:34;;;;;;;133.50;57.40;;;17.20;75.70;;;;;;5034375;28;20041;-38
2023/12/24 10:58:12;;;;;;;127.95;56.80;;;17.20;75.60;;;;;;5033128;28;20042;-38
2023/12/24 11:00:38;;;;;;;128.32;57.70;;;17.20;75.40;;;;;;5037239;28;20041;-39
2023/12/24 11:03:03;;;;;;;130.13;57.45;;;17.20;75.10;;;;;;5045292;28;20043;-39
2023/12/24 11:05:44;;;;;;;128.48;57.03;;;17.20;75.10;;;;;;5041593;28;20053;-39
2023/12/24 11:08:22;;;;;;;132.63;57.80;;;17.20;74.90;;;;;;5036503;28;20053;-38
2023/12/24 11:10:55;;;;;;;132.35;57.75;;;17.20;74.70;;;;;;5055307;28;20189;-39
2023/12/24 11:13:33;;;;;;;128.52;56.95;;;17.20;74.70;;;;;;5035244;28;20168;-38
2023/12/24 11:15:59;;;;;;;130.80;57.20;;;17.20;74.50;;;;;;5035505;28;20040;-39
2023/12/24 11:18:48;;;;;;;130.25;57.47;;;17.20;74.40;;;;;;5031017;28;20045;-39
2023/12/24 11:21:15;;;;;;;131.07;56.78;;;17.20;74.40;;;;;;5035022;28;20049;-38
2023/12/24 11:24:01;;;;;;;128.77;56.80;;;17.20;74.20;;;;;;5036989;28;20060;-39
2023/12/24 11:26:30;;;;;;;128.45;57.10;;;17.20;74.10;;;;;;5040188;28;20041;-39
2023/12/24 11:28:56;;;;;;;129.05;57.45;;;17.20;74.00;;;;;;5041017;28;20032;-39
2023/12/24 11:31:26;;;;;;;127.63;56.88;;;17.20;74.00;;;;;;5038047;28;20045;-39
2023/12/24 11:33:54;;;;;;;131.52;56.75;;;17.20;73.90;;;;;;5037109;28;20112;-39
2023/12/24 11:36:20;;;;;;;127.63;56.58;;;17.20;73.80;;;;;;5041796;28;20149;-39
2023/12/24 11:38:48;;;;;;;131.68;57.67;;;17.20;73.90;;;;;;5036495;28;20049;-39
2023/12/24 11:41:13;;;;;;;127.40;57.17;;;17.20;73.80;;;;;;5034997;28;20045;-39
2023/12/24 11:43:51;;;;;;;127.80;57.35;;;17.20;74.60;;;;;;5035591;28;20081;-39
2023/12/24 11:46:17;;;;;;;129.95;57.58;;;17.20;73.80;;;;;;5033245;28;20152;-39
2023/12/24 11:48:42;;;;;;;129.68;57.47;;;17.20;73.70;;;;;;5043540;28;20045;-39
2023/12/24 11:51:09;;;;;;;128.00;56.75;;;17.20;73.90;;;;;;5037148;28;20712;-39
2023/12/24 11:53:37;;;;;;;128.52;57.03;;;17.20;74.00;;;;;;5038928;28;20034;-39
2023/12/24 11:56:04;;;;;;;129.55;56.95;;;17.20;73.90;;;;;;5034014;28;20037;-40
2023/12/24 11:58:30;;;;;;;130.65;56.88;;;17.20;73.80;;;;;;5038106;28;20049;-39
2023/12/24 12:00:59;;;;;;;127.00;56.65;;;17.20;73.80;;;;;;5033714;28;20061;-39
2023/12/24 12:03:25;;;;;;;128.30;56.67;;;17.20;73.80;;;;;;5042081;28;20033;-38
2023/12/24 12:05:51;;;;;;;129.10;57.40;;;17.20;73.80;;;;;;5040238;28;20542;-38
2023/12/24 12:08:16;;;;;;;130.07;57.92;;;17.20;73.70;;;;;;5034174;28;20044;-39
2023/12/24 12:10:42;;;;;;;130.57;56.92;;;17.20;73.70;;;;;;5041794;28;20823;-39
2023/12/24 12:13:08;;;;;;;129.32;57.10;;;17.20;73.90;;;;;;5036293;28;20218;-39
2023/12/24 12:15:35;;;;;;;128.43;56.90;;;17.20;73.90;;;;;;5041176;28;20167;-39